sensor_id;sensor_type;location;lat;lon;timestamp;pressure;altitude;pressure_sealevel;temperature;humidity
77410;BME280;66481;51.332;22.804;2023-06-19T00:03:59;99544.34;;;12.55;100.00
77410;BME280;66481;51.332;22.804;2023-06-19T00:08:00;99538.59;;;12.50;100.00
77410;BME280;66481;51.332;22.804;2023-06-19T00:12:01;99542.41;;;12.57;100.00
77410;BME280;66481;51.332;22.804;2023-06-19T00:16:02;99535.09;;;12.49;100.00
77410;BME280;66481;51.332;22.804;2023-06-19T00:20:04;99528.34;;;12.45;100.00
77410;BME280;66481;51.332;22.804;2023-06-19T00:24:06;99521.50;;;12.43;100.00
77410;BME280;66481;51.332;22.804;2023-06-19T00:28:08;99520.59;;;12.53;100.00
77410;BME280;66481;51.332;22.804;2023-06-19T00:32:12;99515.78;;;12.47;100.00
77410;BME280;66481;51.332;22.804;2023-06-19T00:36:15;99527.78;;;12.41;100.00
77410;BME280;66481;51.332;22.804;2023-06-19T00:40:30;99535.81;;;12.30;100.00
77410;BME280;66481;51.332;22.804;2023-06-19T00:44:31;99533.75;;;12.34;100.00
77410;BME280;66481;51.332;22.804;2023-06-19T00:48:32;99521.81;;;12.28;100.00
77410;BME280;66481;51.332;22.804;2023-06-19T00:52:34;99518.00;;;12.42;100.00
77410;BME280;66481;51.332;22.804;2023-06-19T00:56:37;99515.75;;;12.37;100.00
77410;BME280;66481;51.332;22.804;2023-06-19T01:00:38;99522.91;;;12.47;100.00
77410;BME280;66481;51.332;22.804;2023-06-19T01:04:39;99523.38;;;12.31;100.00
77410;BME280;66481;51.332;22.804;2023-06-19T01:08:59;99524.47;;;12.28;100.00
77410;BME280;66481;51.332;22.804;2023-06-19T01:13:08;99527.66;;;12.43;100.00
77410;BME280;66481;51.332;22.804;2023-06-19T01:17:11;99529.47;;;12.43;100.00
77410;BME280;66481;51.332;22.804;2023-06-19T01:21:14;99526.09;;;12.40;100.00
77410;BME280;66481;51.332;22.804;2023-06-19T01:25:15;99516.72;;;12.36;100.00
77410;BME280;66481;51.332;22.804;2023-06-19T01:29:17;99519.75;;;12.32;100.00
77410;BME280;66481;51.332;22.804;2023-06-19T01:33:23;99535.47;;;12.23;100.00
77410;BME280;66481;51.332;22.804;2023-06-19T01:37:27;99526.59;;;12.13;100.00
77410;BME280;66481;51.332;22.804;2023-06-19T01:41:28;99526.47;;;12.15;100.00
77410;BME280;66481;51.332;22.804;2023-06-19T01:45:31;99529.72;;;12.18;100.00
77410;BME280;66481;51.332;22.804;2023-06-19T01:49:32;99525.75;;;12.13;100.00
77410;BME280;66481;51.332;22.804;2023-06-19T01:53:33;99531.25;;;12.00;100.00
77410;BME280;66481;51.332;22.804;2023-06-19T01:57:37;99538.25;;;12.01;100.00
77410;BME280;66481;51.332;22.804;2023-06-19T02:01:38;99537.19;;;11.92;100.00
77410;BME280;66481;51.332;22.804;2023-06-19T02:05:39;99535.69;;;11.88;100.00
77410;BME280;66481;51.332;22.804;2023-06-19T02:09:40;99534.88;;;11.88;100.00
77410;BME280;66481;51.332;22.804;2023-06-19T02:13:42;99533.44;;;11.83;100.00
77410;BME280;66481;51.332;22.804;2023-06-19T02:17:43;99536.25;;;11.71;100.00
77410;BME280;66481;51.332;22.804;2023-06-19T02:21:44;99543.47;;;11.69;100.00
77410;BME280;66481;51.332;22.804;2023-06-19T02:25:45;99546.59;;;11.74;100.00
77410;BME280;66481;51.332;22.804;2023-06-19T02:29:46;99539.91;;;11.58;100.00
77410;BME280;66481;51.332;22.804;2023-06-19T02:33:47;99547.97;;;11.57;100.00
77410;BME280;66481;51.332;22.804;2023-06-19T02:37:47;99551.72;;;11.54;100.00
77410;BME280;66481;51.332;22.804;2023-06-19T02:41:49;99551.91;;;11.62;100.00
77410;BME280;66481;51.332;22.804;2023-06-19T02:45:50;99555.84;;;11.79;100.00
77410;BME280;66481;51.332;22.804;2023-06-19T02:49:50;99555.97;;;12.21;100.00
77410;BME280;66481;51.332;22.804;2023-06-19T02:53:51;99550.09;;;13.12;100.00
77410;BME280;66481;51.332;22.804;2023-06-19T02:57:52;99541.06;;;13.94;100.00
77410;BME280;66481;51.332;22.804;2023-06-19T03:01:54;99548.66;;;13.99;100.00
77410;BME280;66481;51.332;22.804;2023-06-19T03:05:55;99564.88;;;13.76;99.90
77410;BME280;66481;51.332;22.804;2023-06-19T03:09:56;99564.31;;;13.82;100.00
77410;BME280;66481;51.332;22.804;2023-06-19T03:13:57;99570.00;;;13.58;100.00
77410;BME280;66481;51.332;22.804;2023-06-19T03:17:58;99576.50;;;13.34;100.00
77410;BME280;66481;51.332;22.804;2023-06-19T03:21:59;99578.88;;;13.07;100.00
77410;BME280;66481;51.332;22.804;2023-06-19T03:26:00;99571.97;;;12.94;100.00
77410;BME280;66481;51.332;22.804;2023-06-19T03:30:01;99581.84;;;13.13;100.00
77410;BME280;66481;51.332;22.804;2023-06-19T03:34:06;99571.34;;;14.42;100.00
77410;BME280;66481;51.332;22.804;2023-06-19T03:38:07;99566.09;;;15.54;93.63
77410;BME280;66481;51.332;22.804;2023-06-19T03:42:08;99561.69;;;16.45;89.38
77410;BME280;66481;51.332;22.804;2023-06-19T03:46:09;99558.59;;;17.87;82.42
77410;BME280;66481;51.332;22.804;2023-06-19T03:50:10;99559.31;;;18.79;79.57
77410;BME280;66481;51.332;22.804;2023-06-19T03:54:11;99556.31;;;19.78;73.19
77410;BME280;66481;51.332;22.804;2023-06-19T03:58:12;99548.75;;;20.28;71.79
77410;BME280;66481;51.332;22.804;2023-06-19T04:02:14;99545.84;;;20.91;70.15
77410;BME280;66481;51.332;22.804;2023-06-19T04:06:14;99538.75;;;21.64;66.76
77410;BME280;66481;51.332;22.804;2023-06-19T04:10:16;99549.66;;;21.92;66.83
77410;BME280;66481;51.332;22.804;2023-06-19T04:14:17;99552.22;;;22.44;62.09
77410;BME280;66481;51.332;22.804;2023-06-19T04:18:18;99555.53;;;22.39;61.74
77410;BME280;66481;51.332;22.804;2023-06-19T04:22:19;99551.84;;;22.25;62.39
77410;BME280;66481;51.332;22.804;2023-06-19T04:26:20;99567.72;;;22.57;62.30
77410;BME280;66481;51.332;22.804;2023-06-19T04:30:22;99563.47;;;23.04;59.76
77410;BME280;66481;51.332;22.804;2023-06-19T04:34:23;99562.63;;;23.32;60.84
77410;BME280;66481;51.332;22.804;2023-06-19T04:38:24;99564.50;;;23.79;59.32
77410;BME280;66481;51.332;22.804;2023-06-19T04:42:25;99555.69;;;24.52;55.82
77410;BME280;66481;51.332;22.804;2023-06-19T04:46:27;99547.47;;;25.19;53.60
77410;BME280;66481;51.332;22.804;2023-06-19T04:50:28;99544.13;;;25.37;54.05
77410;BME280;66481;51.332;22.804;2023-06-19T04:54:29;99553.06;;;25.96;53.18
77410;BME280;66481;51.332;22.804;2023-06-19T04:58:33;99554.41;;;26.94;48.78
77410;BME280;66481;51.332;22.804;2023-06-19T05:02:34;99567.03;;;26.82;48.67
77410;BME280;66481;51.332;22.804;2023-06-19T05:06:35;99562.31;;;27.14;49.54
77410;BME280;66481;51.332;22.804;2023-06-19T05:10:36;99551.91;;;28.27;46.53
77410;BME280;66481;51.332;22.804;2023-06-19T05:14:37;99554.16;;;28.30;44.79
77410;BME280;66481;51.332;22.804;2023-06-19T05:18:38;99552.00;;;27.42;46.16
77410;BME280;66481;51.332;22.804;2023-06-19T05:22:39;99541.31;;;28.61;44.05
77410;BME280;66481;51.332;22.804;2023-06-19T05:26:40;99539.72;;;29.36;42.29
77410;BME280;66481;51.332;22.804;2023-06-19T05:30:41;99535.72;;;29.03;41.19
77410;BME280;66481;51.332;22.804;2023-06-19T05:34:42;99538.47;;;29.03;40.72
77410;BME280;66481;51.332;22.804;2023-06-19T05:38:43;99553.31;;;29.19;40.85
77410;BME280;66481;51.332;22.804;2023-06-19T05:42:44;99550.31;;;29.73;40.22
77410;BME280;66481;51.332;22.804;2023-06-19T05:46:45;99557.50;;;28.44;40.16
77410;BME280;66481;51.332;22.804;2023-06-19T05:50:47;99549.63;;;29.02;39.24
77410;BME280;66481;51.332;22.804;2023-06-19T05:54:48;99545.44;;;29.35;38.34
77410;BME280;66481;51.332;22.804;2023-06-19T05:58:50;99552.25;;;30.18;36.73
77410;BME280;66481;51.332;22.804;2023-06-19T06:02:52;99554.47;;;30.05;37.49
77410;BME280;66481;51.332;22.804;2023-06-19T06:06:53;99548.22;;;30.38;37.54
77410;BME280;66481;51.332;22.804;2023-06-19T06:10:55;99553.41;;;31.07;36.12
77410;BME280;66481;51.332;22.804;2023-06-19T06:14:56;99553.97;;;31.09;35.16
77410;BME280;66481;51.332;22.804;2023-06-19T06:18:58;99551.75;;;31.28;35.64
77410;BME280;66481;51.332;22.804;2023-06-19T06:22:59;99557.88;;;31.36;35.35
77410;BME280;66481;51.332;22.804;2023-06-19T06:27:01;99551.97;;;31.66;34.91
77410;BME280;66481;51.332;22.804;2023-06-19T06:31:01;99552.50;;;29.88;35.31
77410;BME280;66481;51.332;22.804;2023-06-19T06:35:03;99557.81;;;29.95;36.20
77410;BME280;66481;51.332;22.804;2023-06-19T06:39:04;99550.97;;;31.11;33.04
77410;BME280;66481;51.332;22.804;2023-06-19T06:43:06;99556.66;;;30.70;36.09
77410;BME280;66481;51.332;22.804;2023-06-19T06:47:07;99556.56;;;30.82;35.16
77410;BME280;66481;51.332;22.804;2023-06-19T06:51:11;99565.09;;;30.69;37.35
77410;BME280;66481;51.332;22.804;2023-06-19T06:55:11;99558.94;;;31.52;34.79
77410;BME280;66481;51.332;22.804;2023-06-19T06:59:12;99561.78;;;31.62;36.26
77410;BME280;66481;51.332;22.804;2023-06-19T07:03:13;99562.81;;;32.65;33.78
77410;BME280;66481;51.332;22.804;2023-06-19T07:07:14;99565.91;;;32.46;34.01
77410;BME280;66481;51.332;22.804;2023-06-19T07:11:15;99564.28;;;31.91;33.82
77410;BME280;66481;51.332;22.804;2023-06-19T07:15:16;99568.34;;;31.44;37.45
77410;BME280;66481;51.332;22.804;2023-06-19T07:19:17;99565.22;;;32.29;33.48
77410;BME280;66481;51.332;22.804;2023-06-19T07:23:18;99563.44;;;30.85;35.71
77410;BME280;66481;51.332;22.804;2023-06-19T07:27:19;99571.16;;;30.54;37.62
77410;BME280;66481;51.332;22.804;2023-06-19T07:31:20;99575.97;;;32.08;35.38
77410;BME280;66481;51.332;22.804;2023-06-19T07:35:21;99570.38;;;32.90;33.30
77410;BME280;66481;51.332;22.804;2023-06-19T07:39:21;99570.97;;;34.59;30.06
77410;BME280;66481;51.332;22.804;2023-06-19T07:43:22;99572.84;;;31.72;33.49
77410;BME280;66481;51.332;22.804;2023-06-19T07:47:23;99572.94;;;33.07;33.47
77410;BME280;66481;51.332;22.804;2023-06-19T07:51:24;99582.38;;;32.51;32.61
77410;BME280;66481;51.332;22.804;2023-06-19T07:55:25;99580.22;;;32.21;33.98
77410;BME280;66481;51.332;22.804;2023-06-19T07:59:26;99586.75;;;31.93;33.66
77410;BME280;66481;51.332;22.804;2023-06-19T08:03:28;99575.50;;;33.19;31.28
77410;BME280;66481;51.332;22.804;2023-06-19T08:07:29;99590.38;;;34.01;30.00
77410;BME280;66481;51.332;22.804;2023-06-19T08:11:30;99591.88;;;33.08;32.01
77410;BME280;66481;51.332;22.804;2023-06-19T08:15:31;99592.28;;;32.85;34.15
77410;BME280;66481;51.332;22.804;2023-06-19T08:19:32;99590.59;;;32.51;35.23
77410;BME280;66481;51.332;22.804;2023-06-19T08:23:33;99596.75;;;31.38;33.20
77410;BME280;66481;51.332;22.804;2023-06-19T08:27:34;99598.41;;;30.20;35.35
77410;BME280;66481;51.332;22.804;2023-06-19T08:31:35;99592.09;;;30.82;35.51
77410;BME280;66481;51.332;22.804;2023-06-19T08:35:37;99590.66;;;32.24;34.02
77410;BME280;66481;51.332;22.804;2023-06-19T08:39:37;99588.66;;;31.26;32.90
77410;BME280;66481;51.332;22.804;2023-06-19T08:43:39;99591.41;;;33.16;28.89
77410;BME280;66481;51.332;22.804;2023-06-19T08:47:41;99601.75;;;30.10;33.77
77410;BME280;66481;51.332;22.804;2023-06-19T08:51:42;99599.78;;;30.23;34.83
77410;BME280;66481;51.332;22.804;2023-06-19T08:55:44;99590.94;;;30.15;38.20
77410;BME280;66481;51.332;22.804;2023-06-19T08:59:51;99588.81;;;29.36;37.14
77410;BME280;66481;51.332;22.804;2023-06-19T09:03:53;99605.56;;;28.50;42.42
77410;BME280;66481;51.332;22.804;2023-06-19T09:07:58;99600.31;;;29.15;39.26
77410;BME280;66481;51.332;22.804;2023-06-19T09:12:05;99590.97;;;28.99;39.33
77410;BME280;66481;51.332;22.804;2023-06-19T09:16:08;99608.25;;;28.69;37.83
77410;BME280;66481;51.332;22.804;2023-06-19T09:20:09;99604.91;;;28.55;39.71
77410;BME280;66481;51.332;22.804;2023-06-19T09:24:10;99594.31;;;28.47;41.71
77410;BME280;66481;51.332;22.804;2023-06-19T09:28:21;99609.94;;;28.09;43.85
77410;BME280;66481;51.332;22.804;2023-06-19T09:32:27;99615.44;;;27.72;43.73
77410;BME280;66481;51.332;22.804;2023-06-19T09:36:31;99608.63;;;28.42;43.37
77410;BME280;66481;51.332;22.804;2023-06-19T09:40:32;99604.69;;;29.39;41.59
77410;BME280;66481;51.332;22.804;2023-06-19T09:44:42;99600.19;;;30.43;37.55
77410;BME280;66481;51.332;22.804;2023-06-19T09:48:45;99607.34;;;29.75;38.91
77410;BME280;66481;51.332;22.804;2023-06-19T09:52:46;99599.75;;;30.34;35.69
77410;BME280;66481;51.332;22.804;2023-06-19T09:56:48;99598.56;;;28.97;38.07
77410;BME280;66481;51.332;22.804;2023-06-19T10:00:51;99605.59;;;28.20;41.01
77410;BME280;66481;51.332;22.804;2023-06-19T10:04:55;99595.81;;;28.31;40.46
77410;BME280;66481;51.332;22.804;2023-06-19T10:09:05;99591.09;;;28.38;39.98
77410;BME280;66481;51.332;22.804;2023-06-19T10:13:15;99585.63;;;29.28;37.52
77410;BME280;66481;51.332;22.804;2023-06-19T10:17:17;99593.19;;;29.49;38.49
77410;BME280;66481;51.332;22.804;2023-06-19T10:21:19;99582.56;;;28.88;39.67
77410;BME280;66481;51.332;22.804;2023-06-19T10:25:23;99599.97;;;29.11;40.45
77410;BME280;66481;51.332;22.804;2023-06-19T10:29:24;99592.59;;;28.64;39.30
77410;BME280;66481;51.332;22.804;2023-06-19T10:33:30;99586.63;;;28.13;43.39
77410;BME280;66481;51.332;22.804;2023-06-19T10:37:36;99592.53;;;27.99;42.50
77410;BME280;66481;51.332;22.804;2023-06-19T10:41:39;99587.63;;;27.70;45.31
77410;BME280;66481;51.332;22.804;2023-06-19T10:45:41;99590.88;;;27.24;43.90
77410;BME280;66481;51.332;22.804;2023-06-19T10:49:41;99584.94;;;26.90;48.86
77410;BME280;66481;51.332;22.804;2023-06-19T10:53:42;99574.00;;;27.15;45.53
77410;BME280;66481;51.332;22.804;2023-06-19T10:57:44;99581.28;;;27.58;44.28
77410;BME280;66481;51.332;22.804;2023-06-19T11:01:46;99574.81;;;27.59;43.42
77410;BME280;66481;51.332;22.804;2023-06-19T11:05:48;99577.75;;;27.57;43.18
77410;BME280;66481;51.332;22.804;2023-06-19T11:09:49;99576.50;;;27.16;43.24
77410;BME280;66481;51.332;22.804;2023-06-19T11:13:50;99570.44;;;26.77;43.68
77410;BME280;66481;51.332;22.804;2023-06-19T11:17:51;99575.50;;;26.92;44.55
77410;BME280;66481;51.332;22.804;2023-06-19T11:21:52;99573.03;;;26.91;47.01
77410;BME280;66481;51.332;22.804;2023-06-19T11:25:54;99571.28;;;27.15;44.24
77410;BME280;66481;51.332;22.804;2023-06-19T11:30:02;99566.78;;;28.13;44.31
77410;BME280;66481;51.332;22.804;2023-06-19T11:34:07;99557.53;;;29.03;42.52
77410;BME280;66481;51.332;22.804;2023-06-19T11:38:08;99545.56;;;29.40;41.98
77410;BME280;66481;51.332;22.804;2023-06-19T11:42:09;99540.69;;;29.71;38.24
77410;BME280;66481;51.332;22.804;2023-06-19T11:46:10;99536.09;;;29.71;40.28
77410;BME280;66481;51.332;22.804;2023-06-19T11:50:13;99542.34;;;29.31;41.71
77410;BME280;66481;51.332;22.804;2023-06-19T11:54:16;99526.47;;;28.33;42.15
77410;BME280;66481;51.332;22.804;2023-06-19T11:58:19;99528.19;;;28.94;43.02
77410;BME280;66481;51.332;22.804;2023-06-19T12:02:23;99523.31;;;28.72;42.09
77410;BME280;66481;51.332;22.804;2023-06-19T12:06:24;99523.56;;;27.93;44.83
77410;BME280;66481;51.332;22.804;2023-06-19T12:10:25;99531.84;;;28.10;44.95
77410;BME280;66481;51.332;22.804;2023-06-19T12:14:26;99521.28;;;29.15;38.33
77410;BME280;66481;51.332;22.804;2023-06-19T12:18:27;99535.13;;;28.54;41.58
77410;BME280;66481;51.332;22.804;2023-06-19T12:22:28;99537.84;;;28.42;44.91
77410;BME280;66481;51.332;22.804;2023-06-19T12:26:29;99524.75;;;28.86;41.22
77410;BME280;66481;51.332;22.804;2023-06-19T12:30:30;99518.88;;;29.42;39.81
77410;BME280;66481;51.332;22.804;2023-06-19T12:34:31;99511.97;;;28.63;40.53
77410;BME280;66481;51.332;22.804;2023-06-19T12:38:32;99530.03;;;27.25;42.60
77410;BME280;66481;51.332;22.804;2023-06-19T12:42:33;99517.88;;;27.09;43.74
77410;BME280;66481;51.332;22.804;2023-06-19T12:46:34;99510.22;;;28.03;42.86
77410;BME280;66481;51.332;22.804;2023-06-19T12:50:34;99507.84;;;28.61;40.45
77410;BME280;66481;51.332;22.804;2023-06-19T12:54:36;99510.44;;;28.67;38.85
77410;BME280;66481;51.332;22.804;2023-06-19T12:58:37;99515.28;;;28.77;36.60
77410;BME280;66481;51.332;22.804;2023-06-19T13:02:39;99510.09;;;27.98;41.65
77410;BME280;66481;51.332;22.804;2023-06-19T13:06:44;99506.19;;;27.08;46.27
77410;BME280;66481;51.332;22.804;2023-06-19T13:10:45;99502.31;;;27.53;41.52
77410;BME280;66481;51.332;22.804;2023-06-19T13:14:45;99494.84;;;27.79;41.72
77410;BME280;66481;51.332;22.804;2023-06-19T13:18:46;99496.59;;;27.91;37.08
77410;BME280;66481;51.332;22.804;2023-06-19T13:22:48;99490.47;;;27.47;37.09
77410;BME280;66481;51.332;22.804;2023-06-19T13:26:49;99486.94;;;27.47;41.71
77410;BME280;66481;51.332;22.804;2023-06-19T13:30:50;99487.31;;;26.95;42.53
77410;BME280;66481;51.332;22.804;2023-06-19T13:34:51;99490.59;;;26.10;45.14
77410;BME280;66481;51.332;22.804;2023-06-19T13:38:53;99490.56;;;25.78;46.09
77410;BME280;66481;51.332;22.804;2023-06-19T13:42:54;99476.16;;;25.84;46.04
77410;BME280;66481;51.332;22.804;2023-06-19T13:46:55;99469.28;;;25.81;46.22
77410;BME280;66481;51.332;22.804;2023-06-19T13:50:56;99469.47;;;24.96;49.10
77410;BME280;66481;51.332;22.804;2023-06-19T13:54:59;99474.47;;;24.92;48.77
77410;BME280;66481;51.332;22.804;2023-06-19T13:59:02;99472.19;;;24.83;52.95
77410;BME280;66481;51.332;22.804;2023-06-19T14:03:03;99476.47;;;25.17;51.32
77410;BME280;66481;51.332;22.804;2023-06-19T14:07:07;99463.25;;;24.89;51.23
77410;BME280;66481;51.332;22.804;2023-06-19T14:11:08;99460.59;;;24.62;51.14
77410;BME280;66481;51.332;22.804;2023-06-19T14:15:09;99466.19;;;24.74;52.86
77410;BME280;66481;51.332;22.804;2023-06-19T14:19:10;99463.06;;;24.70;51.63
77410;BME280;66481;51.332;22.804;2023-06-19T14:23:11;99468.50;;;24.37;50.13
77410;BME280;66481;51.332;22.804;2023-06-19T14:27:12;99478.69;;;23.88;51.79
77410;BME280;66481;51.332;22.804;2023-06-19T14:31:14;99471.44;;;24.02;51.90
77410;BME280;66481;51.332;22.804;2023-06-19T14:35:16;99475.19;;;24.28;48.52
77410;BME280;66481;51.332;22.804;2023-06-19T14:39:18;99461.81;;;24.46;50.65
77410;BME280;66481;51.332;22.804;2023-06-19T14:43:19;99469.31;;;24.51;54.05
77410;BME280;66481;51.332;22.804;2023-06-19T14:47:20;99467.47;;;24.31;50.92
77410;BME280;66481;51.332;22.804;2023-06-19T14:51:21;99461.63;;;24.68;48.48
77410;BME280;66481;51.332;22.804;2023-06-19T14:55:22;99460.34;;;24.84;47.95
77410;BME280;66481;51.332;22.804;2023-06-19T14:59:24;99461.91;;;25.11;47.89
77410;BME280;66481;51.332;22.804;2023-06-19T15:03:25;99460.91;;;25.06;45.84
77410;BME280;66481;51.332;22.804;2023-06-19T15:07:26;99455.78;;;24.71;47.06
77410;BME280;66481;51.332;22.804;2023-06-19T15:11:28;99469.47;;;24.89;46.88
77410;BME280;66481;51.332;22.804;2023-06-19T15:15:29;99457.44;;;24.72;49.11
77410;BME280;66481;51.332;22.804;2023-06-19T15:19:30;99470.56;;;24.62;46.56
77410;BME280;66481;51.332;22.804;2023-06-19T15:23:31;99456.84;;;24.56;46.60
77410;BME280;66481;51.332;22.804;2023-06-19T15:27:32;99456.84;;;24.63;49.74
77410;BME280;66481;51.332;22.804;2023-06-19T15:31:33;99464.31;;;24.41;50.47
77410;BME280;66481;51.332;22.804;2023-06-19T15:35:35;99456.66;;;24.25;49.50
77410;BME280;66481;51.332;22.804;2023-06-19T15:39:36;99454.56;;;24.20;49.55
77410;BME280;66481;51.332;22.804;2023-06-19T15:43:38;99444.56;;;24.27;52.19
77410;BME280;66481;51.332;22.804;2023-06-19T15:47:39;99447.50;;;24.06;50.55
77410;BME280;66481;51.332;22.804;2023-06-19T15:51:41;99449.19;;;24.00;50.32
77410;BME280;66481;51.332;22.804;2023-06-19T15:55:42;99457.69;;;23.90;48.69
77410;BME280;66481;51.332;22.804;2023-06-19T15:59:43;99462.78;;;23.58;50.40
77410;BME280;66481;51.332;22.804;2023-06-19T16:03:49;99468.63;;;23.55;52.12
77410;BME280;66481;51.332;22.804;2023-06-19T16:07:50;99471.69;;;23.45;49.20
77410;BME280;66481;51.332;22.804;2023-06-19T16:11:51;99472.94;;;23.50;51.92
77410;BME280;66481;51.332;22.804;2023-06-19T16:15:53;99467.34;;;23.51;50.51
77410;BME280;66481;51.332;22.804;2023-06-19T16:19:54;99472.16;;;23.62;53.36
77410;BME280;66481;51.332;22.804;2023-06-19T16:23:55;99468.22;;;23.72;55.39
77410;BME280;66481;51.332;22.804;2023-06-19T16:27:56;99474.44;;;23.72;50.28
77410;BME280;66481;51.332;22.804;2023-06-19T16:31:58;99477.63;;;23.89;51.32
77410;BME280;66481;51.332;22.804;2023-06-19T16:35:59;99485.34;;;23.92;50.66
77410;BME280;66481;51.332;22.804;2023-06-19T16:40:01;99484.84;;;23.69;50.99
77410;BME280;66481;51.332;22.804;2023-06-19T16:44:06;99492.72;;;23.63;52.30
77410;BME280;66481;51.332;22.804;2023-06-19T16:48:07;99484.59;;;23.50;52.07
77410;BME280;66481;51.332;22.804;2023-06-19T16:52:09;99478.09;;;23.31;53.26
77410;BME280;66481;51.332;22.804;2023-06-19T16:56:10;99486.56;;;23.21;54.49
77410;BME280;66481;51.332;22.804;2023-06-19T17:00:12;99485.31;;;23.17;53.49
77410;BME280;66481;51.332;22.804;2023-06-19T17:04:14;99484.03;;;23.13;51.56
77410;BME280;66481;51.332;22.804;2023-06-19T17:08:16;99493.78;;;23.14;51.96
77410;BME280;66481;51.332;22.804;2023-06-19T17:12:17;99489.97;;;23.02;53.63
77410;BME280;66481;51.332;22.804;2023-06-19T17:16:18;99491.13;;;22.86;55.77
77410;BME280;66481;51.332;22.804;2023-06-19T17:20:19;99502.31;;;22.83;55.24
77410;BME280;66481;51.332;22.804;2023-06-19T17:24:22;99491.09;;;22.79;55.68
77410;BME280;66481;51.332;22.804;2023-06-19T17:28:25;99500.16;;;22.71;57.01
77410;BME280;66481;51.332;22.804;2023-06-19T17:32:26;99487.28;;;22.67;57.46
77410;BME280;66481;51.332;22.804;2023-06-19T17:36:27;99500.91;;;22.59;58.27
77410;BME280;66481;51.332;22.804;2023-06-19T17:40:29;99508.13;;;22.51;57.03
77410;BME280;66481;51.332;22.804;2023-06-19T17:44:30;99503.81;;;22.29;59.69
77410;BME280;66481;51.332;22.804;2023-06-19T17:48:31;99514.44;;;22.15;59.90
77410;BME280;66481;51.332;22.804;2023-06-19T17:52:33;99506.28;;;22.09;61.15
77410;BME280;66481;51.332;22.804;2023-06-19T17:56:34;99512.13;;;21.91;62.39
77410;BME280;66481;51.332;22.804;2023-06-19T18:00:35;99514.69;;;21.77;62.82
77410;BME280;66481;51.332;22.804;2023-06-19T18:04:36;99518.72;;;21.67;63.15
77410;BME280;66481;51.332;22.804;2023-06-19T18:08:37;99518.19;;;21.56;63.61
77410;BME280;66481;51.332;22.804;2023-06-19T18:12:38;99528.56;;;21.45;64.37
77410;BME280;66481;51.332;22.804;2023-06-19T18:16:40;99534.91;;;21.37;65.11
77410;BME280;66481;51.332;22.804;2023-06-19T18:20:41;99529.03;;;21.33;64.68
77410;BME280;66481;51.332;22.804;2023-06-19T18:24:42;99521.34;;;21.15;65.65
77410;BME280;66481;51.332;22.804;2023-06-19T18:28:44;99535.66;;;21.01;66.60
77410;BME280;66481;51.332;22.804;2023-06-19T18:32:45;99530.06;;;20.73;69.93
77410;BME280;66481;51.332;22.804;2023-06-19T18:36:47;99543.97;;;20.38;71.65
77410;BME280;66481;51.332;22.804;2023-06-19T18:40:49;99546.19;;;20.12;73.39
77410;BME280;66481;51.332;22.804;2023-06-19T18:44:51;99555.72;;;19.91;74.63
77410;BME280;66481;51.332;22.804;2023-06-19T18:48:53;99549.75;;;19.81;75.46
77410;BME280;66481;51.332;22.804;2023-06-19T18:52:55;99564.06;;;19.65;78.90
77410;BME280;66481;51.332;22.804;2023-06-19T18:56:57;99579.75;;;19.45;80.74
77410;BME280;66481;51.332;22.804;2023-06-19T19:00:58;99582.66;;;19.35;79.57
77410;BME280;66481;51.332;22.804;2023-06-19T19:04:59;99580.00;;;19.27;76.98
77410;BME280;66481;51.332;22.804;2023-06-19T19:09:02;99580.34;;;19.24;76.91
77410;BME280;66481;51.332;22.804;2023-06-19T19:13:04;99594.28;;;19.11;80.25
77410;BME280;66481;51.332;22.804;2023-06-19T19:17:05;99591.13;;;18.91;83.19
77410;BME280;66481;51.332;22.804;2023-06-19T19:21:08;99587.81;;;18.64;83.93
77410;BME280;66481;51.332;22.804;2023-06-19T19:25:11;99586.13;;;18.47;87.44
77410;BME280;66481;51.332;22.804;2023-06-19T19:29:14;99592.66;;;18.36;90.39
77410;BME280;66481;51.332;22.804;2023-06-19T19:33:16;99594.81;;;18.16;93.68
77410;BME280;66481;51.332;22.804;2023-06-19T19:37:18;99590.63;;;18.05;93.37
77410;BME280;66481;51.332;22.804;2023-06-19T19:41:20;99591.06;;;17.92;92.81
77410;BME280;66481;51.332;22.804;2023-06-19T19:45:21;99587.41;;;17.93;93.89
77410;BME280;66481;51.332;22.804;2023-06-19T19:49:23;99592.59;;;17.95;92.81
77410;BME280;66481;51.332;22.804;2023-06-19T19:53:25;99592.56;;;17.87;91.32
77410;BME280;66481;51.332;22.804;2023-06-19T19:57:30;99589.00;;;17.78;93.49
77410;BME280;66481;51.332;22.804;2023-06-19T20:01:41;99580.94;;;17.70;91.87
77410;BME280;66481;51.332;22.804;2023-06-19T20:05:45;99585.59;;;17.59;91.61
77410;BME280;66481;51.332;22.804;2023-06-19T20:09:46;99580.53;;;17.48;91.79
77410;BME280;66481;51.332;22.804;2023-06-19T20:13:50;99586.31;;;17.35;92.71
77410;BME280;66481;51.332;22.804;2023-06-19T20:17:52;99577.59;;;17.25;92.53
77410;BME280;66481;51.332;22.804;2023-06-19T20:21:53;99573.50;;;17.13;95.84
77410;BME280;66481;51.332;22.804;2023-06-19T20:25:54;99577.75;;;16.97;98.82
77410;BME280;66481;51.332;22.804;2023-06-19T20:29:56;99573.53;;;16.86;97.44
77410;BME280;66481;51.332;22.804;2023-06-19T20:33:58;99568.88;;;16.70;95.86
77410;BME280;66481;51.332;22.804;2023-06-19T20:38:01;99574.47;;;16.59;95.35
77410;BME280;66481;51.332;22.804;2023-06-19T20:42:03;99566.16;;;16.62;99.39
77410;BME280;66481;51.332;22.804;2023-06-19T20:46:06;99571.97;;;16.40;100.00
77410;BME280;66481;51.332;22.804;2023-06-19T20:50:11;99571.91;;;16.31;100.00
77410;BME280;66481;51.332;22.804;2023-06-19T20:54:18;99566.19;;;16.26;99.46
77410;BME280;66481;51.332;22.804;2023-06-19T20:58:23;99572.13;;;16.38;95.38
77410;BME280;66481;51.332;22.804;2023-06-19T21:02:29;99568.84;;;16.26;95.97